METAR Data
IDs: Format: Raw Decoded Include TAF

Data at: 1432 UTC 10 Aug 2022

KMRY 101354Z 08003KT 10SM CLR 14/10 A3006 RMK AO2 SLP190 T01440100
KMRY 101254Z 11003KT 10SM CLR 15/10 A3004 RMK AO2 SLP185 T01500100
KMRY 101154Z AUTO 11003KT 10SM CLR 14/11 A3003 RMK AO2 SLP181 T01440106 10183 20144 56003
KMRY 101054Z AUTO 18003KT 10SM CLR 16/12 A3004 RMK AO2 SLP181 T01610122
KMRY 100954Z AUTO 20003KT 10SM CLR 17/13 A3004 RMK AO2 SLP183 T01670128
KMRY 100854Z AUTO 00000KT 10SM CLR 17/13 A3004 RMK AO2 SLP184 T01720128 58001
KMRY 100754Z AUTO 00000KT 10SM CLR 17/13 A3005 RMK AO2 SLP185 T01720133 402390161
KMRY 100654Z AUTO 21005KT 10SM FEW010 18/14 A3005 RMK AO2 SLP186 T01780144
KMRY 100649Z AUTO 22006KT 10SM SCT010 18/14 A3005 RMK AO2
KMRY 100641Z AUTO 22006KT 10SM BKN010 18/14 A3004 RMK AO2 T01780144
KMRY 100554Z AUTO 24006KT 10SM CLR 18/14 A3005 RMK AO2 SLP185 T01780144 10222 20178 51009
KMRY 100454Z AUTO 22003KT 10SM CLR 18/14 A3004 RMK AO2 SLP183 T01830144
KMRY 100354Z 18004KT 10SM CLR 19/14 A3003 RMK AO2 SLP178 T01890139
KMRY 100254Z 22006KT 10SM CLR 19/14 A3002 RMK AO2 SLP175 T01940139 53002
KMRY 100154Z 26010KT 10SM CLR 21/13 A3001 RMK AO2 SLP173 T02110133
KMRY 100054Z 29009KT 10SM CLR 22/13 A3001 RMK AO2 SLP173 T02220128
KMRY 092354Z 28012KT 10SM CLR 23/12 A3001 RMK AO2 SLP173 T02280122 10239 20206 55003
KMRY 092254Z 31012KT 10SM CLR 23/12 A3001 RMK AO2 SLP172 T02280122
KMRY 092154Z 32010KT 10SM CLR 23/13 A3001 RMK AO2 SLP173 T02280128
KMRY 092054Z 31010KT 10SM CLR 23/13 A3002 RMK AO2 SLP177 T02280128 58002
KMRY 091954Z 32010KT 10SM CLR 22/13 A3003 RMK AO2 SLP178 T02220128
KMRY 091854Z 33010KT 10SM CLR 21/13 A3003 RMK AO2 SLP179 T02110128
KMRY 091754Z 31006KT 10SM CLR 21/13 A3003 RMK AO2 SLP178 T02060128 10206 20167 51003
KMRY 091654Z 35007KT 10SM CLR 19/13 A3002 RMK AO2 SLP177 T01940128
KMRY 091554Z 31005KT 10SM CLR 18/13 A3003 RMK AO2 SLP178 T01830128
KMRY 091454Z 25005KT 10SM SCT013 18/13 A3002 RMK AO2 SLP175 T01780133 53008
KMRY 091409Z 22005KT 10SM SCT013 17/14 A3001 RMK AO2 T01670139
KMRY 091354Z 23007KT 10SM BKN009 17/14 A3001 RMK AO2 SLP171 T01670139
KMRY 091254Z 23006KT 10SM BKN009 17/13 A3000 RMK AO2 SLP168 T01670133
KMRY 091154Z AUTO 21005KT 10SM OVC008 17/14 A2999 RMK AO2 SLP166 T01670139 10172 20161 55001
KMRY 091054Z AUTO 23005KT 10SM BKN009 17/13 A2999 RMK AO2 SLP165 T01670133
KMRY 091032Z AUTO 24005KT 10SM BKN009 17/13 A2999 RMK AO2 T01670133
KMRY 091017Z AUTO 24005KT 10SM SCT009 17/13 A2998 RMK AO2 T01670133
KMRY 090954Z AUTO 25008KT 10SM BKN009 17/13 A2999 RMK AO2 SLP166 T01670133
KMRY 090947Z AUTO 24008KT 10SM BKN009 17/13 A2999 RMK AO2 T01670133
KMRY 090854Z AUTO 25006KT 10SM SCT008 17/13 A2999 RMK AO2 SLP167 T01670133 50003
KMRY 090829Z AUTO 25007KT 10SM SCT008 17/13 A2999 RMK AO2 T01670133
KMRY 090809Z AUTO 24006KT 10SM BKN007 17/13 A3000 RMK AO2 T01670133
KMRY 090754Z AUTO 27006KT 10SM FEW007 17/13 A3000 RMK AO2 SLP168 T01670133 402280144
KMRY 090654Z AUTO 21006KT 10SM CLR 17/13 A2998 RMK AO2 SLP164 T01720128
KMRY 090554Z AUTO 20006KT 10SM CLR 17/13 A2998 RMK AO2 SLP164 T01720133 10222 20172 50001
KMRY 090454Z AUTO 22007KT 10SM CLR 18/13 A2999 RMK AO2 SLP167 T01780133
KMRY 090354Z AUTO 24008KT 10SM CLR 18/13 A2999 RMK AO2 SLP164 T01830133
KMRY 090254Z 25007KT 10SM CLR 19/13 A2998 RMK AO2 SLP163 T01940128 55000